18°C Temp
16°C Dewpoint
% Humidity
Temperature
8 KM/H
5 MPH
4 KTS
180°
Due South

Wind Speed
Mostly Scattered
Clouds
Pressure 1016.92 (hPa) - 30.03 (in)
Visibility 6.2 (mi) - 10.0 (km)

Current Conditions
LIME
Location 30(km)
Metar :LIME 160350Z 18004KT 140V240 9999 SCT090 18/16 Q1017 NOSIG
Fri 16th August 04:50 am

Airport
  Metar Aviation API Data Provided by https://www.checkwx.com/ PHP scripts by weather34.com ©2019